createdAt,value
2023-02-05T00:00:25.926Z,50.908184
2023-02-05T00:01:25.905Z,50.908237
2023-02-05T00:02:25.883Z,50.908234
2023-02-05T00:03:25.892Z,50.908203
2023-02-05T00:04:25.871Z,50.908188
2023-02-05T00:05:25.894Z,50.908188
2023-02-05T00:06:25.858Z,50.908203
2023-02-05T00:07:25.850Z,50.908180
2023-02-05T00:08:25.848Z,50.908169
2023-02-05T00:09:25.834Z,50.908195
2023-02-05T00:10:25.862Z,50.908173
2023-02-05T00:11:25.821Z,50.908173
2023-02-05T00:12:25.810Z,50.908165
2023-02-05T00:13:25.799Z,50.908188
2023-02-05T00:14:25.799Z,50.908184
2023-02-05T00:15:25.819Z,50.908165
2023-02-05T00:16:25.847Z,50.908165
2023-02-05T00:17:25.776Z,50.908184
2023-02-05T00:18:25.762Z,50.908199
2023-02-05T00:19:25.755Z,50.908203
2023-02-05T00:20:25.778Z,50.908077
2023-02-05T00:21:25.738Z,50.908020
2023-02-05T00:22:25.737Z,50.908020
2023-02-05T00:23:25.725Z,50.908005
2023-02-05T00:24:25.718Z,50.908058
2023-02-05T00:25:25.732Z,50.908123
2023-02-05T00:26:25.708Z,50.908150
2023-02-05T00:27:25.693Z,50.908150
2023-02-05T00:28:25.687Z,50.908134
2023-02-05T00:29:25.688Z,50.908066
2023-02-05T00:30:25.704Z,50.908138
2023-02-05T00:31:25.793Z,50.908085
2023-02-05T00:32:25.658Z,50.907982
2023-02-05T00:33:25.651Z,50.908016
2023-02-05T00:34:25.649Z,50.908150
2023-02-05T00:35:25.684Z,50.908157
2023-02-05T00:36:25.636Z,50.908035
2023-02-05T00:37:25.622Z,50.908062
2023-02-05T00:38:25.618Z,50.908077
2023-02-05T00:39:25.609Z,50.908058
2023-02-05T00:40:25.608Z,50.907990
2023-02-05T00:41:25.616Z,50.908108
2023-02-05T00:42:25.586Z,50.908257
2023-02-05T00:43:25.575Z,50.908379
2023-02-05T00:44:25.567Z,50.908394
2023-02-05T00:45:25.566Z,50.908188
2023-02-05T00:46:25.666Z,50.908096
2023-02-05T00:47:25.548Z,50.908112
2023-02-05T00:48:25.539Z,50.908092
2023-02-05T00:49:25.529Z,50.908100
2023-02-05T00:50:25.524Z,50.908077
2023-02-05T00:51:25.546Z,50.908115
2023-02-05T00:52:25.522Z,50.908119
2023-02-05T00:53:25.498Z,50.908119
2023-02-05T00:54:25.492Z,50.908123
2023-02-05T00:55:25.479Z,50.908146
2023-02-05T00:56:25.497Z,50.908142
2023-02-05T00:57:25.467Z,50.908188
2023-02-05T00:58:25.460Z,50.908203
2023-02-05T00:59:25.456Z,50.908180
2023-02-05T01:00:25.437Z,50.908131
2023-02-05T01:01:26.480Z,50.908157
2023-02-05T01:02:25.465Z,50.908157
2023-02-05T01:03:25.426Z,50.908123
2023-02-05T01:04:25.422Z,50.908154
2023-02-05T01:05:25.411Z,50.908173
2023-02-05T01:06:25.442Z,50.908176
2023-02-05T01:07:25.398Z,50.908180
2023-02-05T01:08:25.398Z,50.908207
2023-02-05T01:09:25.381Z,50.908146
2023-02-05T01:10:25.386Z,50.908169
2023-02-05T01:11:25.416Z,50.908169
2023-02-05T01:12:25.364Z,50.908169
2023-02-05T01:13:25.354Z,50.908169
2023-02-05T01:14:25.354Z,50.908154
2023-02-05T01:15:25.338Z,50.908154
2023-02-05T01:16:25.355Z,50.908127
2023-02-05T01:17:25.320Z,50.908100
2023-02-05T01:18:25.328Z,50.908138
2023-02-05T01:19:25.310Z,50.908123
2023-02-05T01:20:25.306Z,50.908100
2023-02-05T01:21:25.344Z,50.908054
2023-02-05T01:22:25.289Z,50.908062
2023-02-05T01:23:25.285Z,50.907948
2023-02-05T01:24:25.274Z,50.908012
2023-02-05T01:25:25.263Z,50.908054
2023-02-05T01:26:25.290Z,50.908100
2023-02-05T01:27:25.250Z,50.908119
2023-02-05T01:28:25.248Z,50.908131
2023-02-05T01:29:25.236Z,50.908070
2023-02-05T01:30:25.226Z,50.908131
2023-02-05T01:31:25.308Z,50.908146
2023-02-05T01:32:25.241Z,50.908138
2023-02-05T01:33:25.207Z,50.908096
2023-02-05T01:34:25.201Z,50.908119
2023-02-05T01:35:25.190Z,50.908150
2023-02-05T01:36:25.182Z,50.908134
2023-02-05T01:37:25.200Z,50.908176
2023-02-05T01:38:25.162Z,50.908161
2023-02-05T01:39:25.161Z,50.908150
2023-02-05T01:40:25.159Z,50.908154
2023-02-05T01:41:25.140Z,50.908161
2023-02-05T01:42:25.161Z,50.908127
2023-02-05T01:43:25.126Z,50.908127
2023-02-05T01:44:25.125Z,50.908119
2023-02-05T01:45:25.133Z,50.908115
2023-02-05T01:46:25.158Z,50.908058
2023-02-05T01:47:25.117Z,50.908112
2023-02-05T01:48:25.082Z,50.908142
2023-02-05T01:49:25.091Z,50.908115
2023-02-05T01:50:26.074Z,50.908150
2023-02-05T01:51:25.062Z,50.908146
2023-02-05T01:52:25.079Z,50.908138
2023-02-05T01:53:25.050Z,50.908150
2023-02-05T01:54:25.034Z,50.908134
2023-02-05T01:55:25.033Z,50.908154
2023-02-05T01:56:25.026Z,50.908142
2023-02-05T01:57:25.041Z,50.908115
2023-02-05T01:58:25.009Z,50.908199
2023-02-05T01:59:25.001Z,50.908165
2023-02-05T02:00:24.996Z,50.908123
2023-02-05T02:01:25.020Z,50.908104
2023-02-05T02:02:25.020Z,50.908123
2023-02-05T02:03:24.972Z,50.908161
2023-02-05T02:04:24.981Z,50.908161
2023-02-05T02:05:24.988Z,50.908073
2023-02-05T02:06:24.948Z,50.908123
2023-02-05T02:07:24.970Z,50.908146
2023-02-05T02:08:24.984Z,50.908173
2023-02-05T02:09:24.950Z,50.908195
2023-02-05T02:10:24.929Z,50.908161
2023-02-05T02:11:24.916Z,50.908188
2023-02-05T02:12:24.940Z,50.908169
2023-02-05T02:13:24.899Z,50.908115
2023-02-05T02:14:24.898Z,50.908134
2023-02-05T02:15:24.887Z,50.908131
2023-02-05T02:16:24.903Z,50.908089
2023-02-05T02:17:24.904Z,50.908150
2023-02-05T02:18:24.864Z,50.908161
2023-02-05T02:19:24.867Z,50.908134
2023-02-05T02:20:24.849Z,50.908043
2023-02-05T02:21:24.842Z,50.908142
2023-02-05T02:22:24.840Z,50.908192
2023-02-05T02:23:24.872Z,50.908207
2023-02-05T02:24:24.823Z,50.908123
2023-02-05T02:25:24.818Z,50.908035
2023-02-05T02:26:24.845Z,50.908195
2023-02-05T02:27:24.822Z,50.908138
2023-02-05T02:28:24.817Z,50.908119
2023-02-05T02:29:24.793Z,50.908154
2023-02-05T02:30:24.846Z,50.908169
2023-02-05T02:31:24.796Z,50.908180
2023-02-05T02:32:24.775Z,50.908119
2023-02-05T02:33:24.784Z,50.908195
2023-02-05T02:34:24.760Z,50.908146
2023-02-05T02:35:24.747Z,50.908112
2023-02-05T02:36:24.746Z,50.908089
2023-02-05T02:37:24.732Z,50.908134
2023-02-05T02:38:24.762Z,50.908031
2023-02-05T02:39:24.719Z,50.908138
2023-02-05T02:40:24.707Z,50.908134
2023-02-05T02:41:24.715Z,50.908096
2023-02-05T02:42:24.692Z,50.908096
2023-02-05T02:43:24.715Z,50.908138
2023-02-05T02:44:24.678Z,50.907799
2023-02-05T02:45:24.677Z,50.907959
2023-02-05T02:46:24.675Z,50.908012
2023-02-05T02:47:25.655Z,50.908146
2023-02-05T02:48:24.676Z,50.908127
2023-02-05T02:49:24.652Z,50.908241
2023-02-05T02:50:24.635Z,50.908207
2023-02-05T02:51:24.631Z,50.908157
2023-02-05T02:52:24.625Z,50.907986
2023-02-05T02:53:24.616Z,50.908058
2023-02-05T02:54:24.636Z,50.908234
2023-02-05T02:55:24.602Z,50.907993
2023-02-05T02:56:24.597Z,50.908062
2023-02-05T02:57:24.589Z,50.908058
2023-02-05T02:58:24.578Z,50.908039
2023-02-05T02:59:24.609Z,50.908012
2023-02-05T03:00:24.573Z,50.908039
2023-02-05T03:01:24.557Z,50.908070
2023-02-05T03:02:24.563Z,50.907990
2023-02-05T03:03:24.614Z,50.907982
2023-02-05T03:04:24.563Z,50.908005
2023-02-05T03:05:24.526Z,50.908119
2023-02-05T03:06:24.517Z,50.908173
2023-02-05T03:07:24.519Z,50.908192
2023-02-05T03:08:24.511Z,50.908199
2023-02-05T03:09:24.522Z,50.908180
2023-02-05T03:10:24.504Z,50.908180
2023-02-05T03:11:24.483Z,50.908180
2023-02-05T03:12:24.473Z,50.908180
2023-02-05T03:13:24.469Z,50.908180
2023-02-05T03:14:24.490Z,50.908180
2023-02-05T03:15:24.449Z,50.908180
2023-02-05T03:16:24.536Z,50.908180
2023-02-05T03:17:24.443Z,50.908180
2023-02-05T03:18:24.434Z,50.908180
2023-02-05T03:19:24.448Z,50.908180
2023-02-05T03:20:24.415Z,50.908180
2023-02-05T03:21:24.406Z,50.908180
2023-02-05T03:22:24.385Z,50.908180
2023-02-05T03:23:25.387Z,50.908180
2023-02-05T03:24:24.415Z,50.908180
2023-02-05T03:25:24.373Z,50.908180
2023-02-05T03:26:24.375Z,50.908180
2023-02-05T03:27:24.359Z,50.908180
2023-02-05T03:28:24.371Z,50.908180
2023-02-05T03:29:24.368Z,50.908180
2023-02-05T03:30:24.338Z,50.908180
2023-02-05T03:31:24.343Z,50.908180
2023-02-05T03:32:24.348Z,50.908180
2023-02-05T03:33:24.319Z,50.908180
2023-02-05T03:34:24.311Z,50.908119
2023-02-05T03:35:24.300Z,50.908154
2023-02-05T03:36:25.303Z,50.908150
2023-02-05T03:37:24.328Z,50.908127
2023-02-05T03:38:24.284Z,50.908161
2023-02-05T03:39:24.278Z,50.908146
2023-02-05T03:40:24.275Z,50.908138
2023-02-05T03:41:24.260Z,50.908134
2023-02-05T03:42:24.277Z,50.908115
2023-02-05T03:43:24.248Z,50.908127
2023-02-05T03:44:24.425Z,50.908169
2023-02-05T03:45:24.274Z,50.908165
2023-02-05T03:46:24.224Z,50.908081
2023-02-05T03:47:24.241Z,50.908127
2023-02-05T03:48:24.210Z,50.908100
2023-02-05T03:49:24.200Z,50.908115
2023-02-05T03:50:24.193Z,50.908131
2023-02-05T03:51:24.183Z,50.908150
2023-02-05T03:52:24.207Z,50.908119
2023-02-05T03:53:24.174Z,50.908123
2023-02-05T03:54:24.159Z,50.908123
2023-02-05T03:55:24.150Z,50.908005
2023-02-05T03:56:24.152Z,50.908070
2023-02-05T03:57:24.140Z,50.908131
2023-02-05T03:58:24.158Z,50.908112
2023-02-05T03:59:24.119Z,50.908131
2023-02-05T04:00:24.120Z,50.908134
2023-02-05T04:01:24.140Z,50.908337
2023-02-05T04:02:24.149Z,50.908226
2023-02-05T04:03:24.122Z,50.908131
2023-02-05T04:04:24.081Z,50.908146
2023-02-05T04:05:24.076Z,50.908138
2023-02-05T04:06:24.059Z,50.908146
2023-02-05T04:07:24.054Z,50.908161
2023-02-05T04:08:24.073Z,50.908146
2023-02-05T04:09:24.043Z,50.908169
2023-02-05T04:10:24.033Z,50.908195
2023-02-05T04:11:24.024Z,50.908173
2023-02-05T04:12:24.014Z,50.908222
2023-02-05T04:13:24.030Z,50.908180
2023-02-05T04:14:24.000Z,50.908134
2023-02-05T04:15:23.992Z,50.908123
2023-02-05T04:16:23.999Z,50.908154
2023-02-05T04:17:23.976Z,50.908150
2023-02-05T04:18:23.994Z,50.908134
2023-02-05T04:19:23.961Z,50.908150
2023-02-05T04:20:23.950Z,50.908142
2023-02-05T04:21:23.943Z,50.908169
2023-02-05T04:22:23.955Z,50.908146
2023-02-05T04:23:23.954Z,50.908119
2023-02-05T04:24:23.923Z,50.908173
2023-02-05T04:25:23.930Z,50.908188
2023-02-05T04:26:23.910Z,50.908180
2023-02-05T04:27:23.903Z,50.908123
2023-02-05T04:28:23.922Z,50.908127
2023-02-05T04:29:23.897Z,50.908154
2023-02-05T04:30:23.892Z,50.908161
2023-02-05T04:31:23.934Z,50.908176
2023-02-05T04:32:23.868Z,50.908131
2023-02-05T04:33:23.884Z,50.908146
2023-02-05T04:34:23.855Z,50.908134
2023-02-05T04:35:23.847Z,50.908157
2023-02-05T04:36:23.847Z,50.908165
2023-02-05T04:37:23.834Z,50.908039
2023-02-05T04:38:23.852Z,50.908035
2023-02-05T04:39:23.821Z,50.908142
2023-02-05T04:40:23.816Z,50.908142
2023-02-05T04:41:23.808Z,50.908157
2023-02-05T04:42:23.806Z,50.908173
2023-02-05T04:43:23.814Z,50.908180
2023-02-05T04:44:23.786Z,50.908054
2023-02-05T04:45:23.777Z,50.908070
2023-02-05T04:46:23.773Z,50.908146
2023-02-05T04:47:23.765Z,50.908146
2023-02-05T04:48:23.780Z,50.908264
2023-02-05T04:49:23.747Z,50.908180
2023-02-05T04:50:23.743Z,50.908119
2023-02-05T04:51:23.746Z,50.908009
2023-02-05T04:52:23.723Z,50.908100
2023-02-05T04:53:23.745Z,50.908123
2023-02-05T04:54:23.713Z,50.908134
2023-02-05T04:55:23.707Z,50.908096
2023-02-05T04:56:23.713Z,50.908092
2023-02-05T04:57:23.684Z,50.908131
2023-02-05T04:58:23.705Z,50.908119
2023-02-05T04:59:23.671Z,50.908150
2023-02-05T05:00:23.666Z,50.908169
2023-02-05T05:01:23.695Z,50.908234
2023-02-05T05:02:23.672Z,50.908199
2023-02-05T05:03:23.665Z,50.908154
2023-02-05T05:04:23.633Z,50.908096
2023-02-05T05:05:23.628Z,50.908119
2023-02-05T05:06:23.621Z,50.908142
2023-02-05T05:07:23.615Z,50.908127
2023-02-05T05:08:23.641Z,50.908142
2023-02-05T05:09:23.599Z,50.908092
2023-02-05T05:10:23.596Z,50.908104
2023-02-05T05:11:23.584Z,50.908142
2023-02-05T05:12:23.575Z,50.908169
2023-02-05T05:13:23.597Z,50.908077
2023-02-05T05:14:23.561Z,50.908154
2023-02-05T05:15:23.557Z,50.908119
2023-02-05T05:16:23.556Z,50.908142
2023-02-05T05:17:23.539Z,50.908131
2023-02-05T05:18:23.556Z,50.908100
2023-02-05T05:19:23.526Z,50.908142
2023-02-05T05:20:23.526Z,50.908150
2023-02-05T05:21:23.523Z,50.908169
2023-02-05T05:22:23.514Z,50.908085
2023-02-05T05:23:23.529Z,50.908123
2023-02-05T05:24:23.490Z,50.908104
2023-02-05T05:25:23.495Z,50.908157
2023-02-05T05:26:23.473Z,50.908138
2023-02-05T05:27:23.462Z,50.908112
2023-02-05T05:28:24.489Z,50.908123
2023-02-05T05:29:23.454Z,50.908157
2023-02-05T05:30:23.441Z,50.908119
2023-02-05T05:31:23.464Z,50.908127
2023-02-05T05:32:23.441Z,50.908218
2023-02-05T05:33:23.424Z,50.908260
2023-02-05T05:34:23.441Z,50.908157
2023-02-05T05:35:23.422Z,50.908165
2023-02-05T05:36:23.406Z,50.908184
2023-02-05T05:37:23.392Z,50.908119
2023-02-05T05:38:23.380Z,50.908146
2023-02-05T05:39:23.395Z,50.908127
2023-02-05T05:40:23.366Z,50.908134
2023-02-05T05:41:23.363Z,50.908009
2023-02-05T05:42:23.352Z,50.907864
2023-02-05T05:43:23.348Z,50.907986
2023-02-05T05:44:23.365Z,50.908127
2023-02-05T05:45:23.329Z,50.908215
2023-02-05T05:46:23.383Z,50.908199
2023-02-05T05:47:23.314Z,50.908257
2023-02-05T05:48:23.308Z,50.908264
2023-02-05T05:49:23.325Z,50.908169
2023-02-05T05:50:23.289Z,50.908142
2023-02-05T05:51:23.301Z,50.908115
2023-02-05T05:52:23.276Z,50.908108
2023-02-05T05:53:23.266Z,50.908112
2023-02-05T05:54:23.285Z,50.908100
2023-02-05T05:55:23.241Z,50.908260
2023-02-05T05:56:24.240Z,50.908188
2023-02-05T05:57:23.234Z,50.908150
2023-02-05T05:58:23.225Z,50.908161
2023-02-05T05:59:23.247Z,50.908272
2023-02-05T06:00:23.215Z,50.908169
2023-02-05T06:01:23.207Z,50.908108
2023-02-05T06:02:23.224Z,50.908134
2023-02-05T06:03:23.203Z,50.908260
2023-02-05T06:04:23.251Z,50.908211
2023-02-05T06:05:23.174Z,50.908123
2023-02-05T06:06:23.164Z,50.908138
2023-02-05T06:07:23.159Z,50.908199
2023-02-05T06:08:23.151Z,50.908138
2023-02-05T06:09:23.170Z,50.908146
2023-02-05T06:10:23.137Z,50.908100
2023-02-05T06:11:23.134Z,50.908070
2023-02-05T06:12:23.126Z,50.908154
2023-02-05T06:13:23.121Z,50.908100
2023-02-05T06:14:23.131Z,50.908104
2023-02-05T06:15:23.099Z,50.908081
2023-02-05T06:16:23.087Z,50.908173
2023-02-05T06:17:23.081Z,50.908150
2023-02-05T06:18:23.929Z,50.908154
2023-02-05T06:19:24.094Z,50.908169
2023-02-05T06:20:23.061Z,50.908035
2023-02-05T06:21:23.073Z,50.908031
2023-02-05T06:22:23.040Z,50.908314
2023-02-05T06:23:23.030Z,50.908165
2023-02-05T06:24:23.046Z,50.908150
2023-02-05T06:25:23.015Z,50.908131
2023-02-05T06:26:23.025Z,50.908127
2023-02-05T06:27:23.002Z,50.908203
2023-02-05T06:28:23.008Z,50.908321
2023-02-05T06:29:23.016Z,50.908340
2023-02-05T06:30:22.975Z,50.908260
2023-02-05T06:31:24.054Z,50.908134
2023-02-05T06:32:24.613Z,50.908131
2023-02-05T06:33:22.958Z,50.908005
2023-02-05T06:34:22.972Z,50.907925
2023-02-05T06:35:22.949Z,50.907906
2023-02-05T06:36:22.931Z,50.908218
2023-02-05T06:37:26.802Z,50.908340
2023-02-05T06:38:24.914Z,50.908367
2023-02-05T06:39:25.128Z,50.908157
2023-02-05T06:40:23.912Z,50.908134
2023-02-05T06:41:22.895Z,50.908085
2023-02-05T06:42:22.889Z,50.908134
2023-02-05T06:43:22.875Z,50.908142
2023-02-05T06:44:22.900Z,50.908154
2023-02-05T06:45:22.863Z,50.908123
2023-02-05T06:46:22.880Z,50.908104
2023-02-05T06:47:22.844Z,50.908089
2023-02-05T06:48:22.839Z,50.908108
2023-02-05T06:49:22.852Z,50.908104
2023-02-05T06:50:22.822Z,50.908081
2023-02-05T06:51:22.814Z,50.908092
2023-02-05T06:52:22.809Z,50.908146
2023-02-05T06:53:22.802Z,50.908119
2023-02-05T06:54:22.819Z,50.908104
2023-02-05T06:55:22.778Z,50.908089
2023-02-05T06:56:22.770Z,50.908073
2023-02-05T06:57:22.763Z,50.908112
2023-02-05T06:58:22.761Z,50.908085
2023-02-05T06:59:22.787Z,50.908123
2023-02-05T07:00:22.739Z,50.908119
2023-02-05T07:01:22.757Z,50.908115
2023-02-05T07:02:22.768Z,50.908108
2023-02-05T07:03:22.725Z,50.908123
2023-02-05T07:04:22.712Z,50.908104
2023-02-05T07:05:22.730Z,50.908131
2023-02-05T07:06:22.699Z,50.908070
2023-02-05T07:07:22.697Z,50.908112
2023-02-05T07:08:22.683Z,50.908115
2023-02-05T07:09:22.676Z,50.908115
2023-02-05T07:10:22.699Z,50.907993
2023-02-05T07:11:22.660Z,50.908142
2023-02-05T07:12:22.649Z,50.908165
2023-02-05T07:13:22.646Z,50.908138
2023-02-05T07:14:22.633Z,50.908138
2023-02-05T07:15:22.648Z,50.908157
2023-02-05T07:16:22.655Z,50.908127
2023-02-05T07:17:22.613Z,50.908092
2023-02-05T07:18:22.608Z,50.908283
2023-02-05T07:19:22.600Z,50.908157
2023-02-05T07:20:22.624Z,50.908215
2023-02-05T07:21:22.582Z,50.908104
2023-02-05T07:22:22.586Z,50.908096
2023-02-05T07:23:22.569Z,50.907948
2023-02-05T07:24:22.577Z,50.908005
2023-02-05T07:25:22.590Z,50.908070
2023-02-05T07:26:22.545Z,50.908123
2023-02-05T07:27:22.535Z,50.908203
2023-02-05T07:28:22.531Z,50.908211
2023-02-05T07:29:22.531Z,50.908169
2023-02-05T07:30:22.542Z,50.908104
2023-02-05T07:31:22.716Z,50.908092
2023-02-05T07:32:22.498Z,50.908108
2023-02-05T07:33:22.497Z,50.908047
2023-02-05T07:34:22.494Z,50.908035
2023-02-05T07:35:22.498Z,50.908085
2023-02-05T07:36:22.476Z,50.908089
2023-02-05T07:37:22.462Z,50.908112
2023-02-05T07:38:22.457Z,50.908058
2023-02-05T07:39:22.442Z,50.908241
2023-02-05T07:40:22.459Z,50.908169
2023-02-05T07:41:22.429Z,50.908100
2023-02-05T07:42:22.418Z,50.908134
2023-02-05T07:43:22.410Z,50.908154
2023-02-05T07:44:22.404Z,50.908157
2023-02-05T07:45:22.419Z,50.908226
2023-02-05T07:46:22.445Z,50.908230
2023-02-05T07:47:22.405Z,50.908146
2023-02-05T07:48:22.372Z,50.908207
2023-02-05T07:49:22.383Z,50.908207
2023-02-05T07:50:22.359Z,50.908066
2023-02-05T07:51:23.341Z,50.908138
2023-02-05T07:52:22.341Z,50.908215
2023-02-05T07:53:22.329Z,50.908173
2023-02-05T07:54:22.327Z,50.908127
2023-02-05T07:55:22.351Z,50.908009
2023-02-05T07:56:22.313Z,50.908039
2023-02-05T07:57:22.301Z,50.908237
2023-02-05T07:58:22.289Z,50.908318
2023-02-05T07:59:22.283Z,50.908241
2023-02-05T08:00:22.304Z,50.908131
2023-02-05T08:01:22.361Z,50.908112
2023-02-05T08:02:22.260Z,50.908134
2023-02-05T08:03:23.413Z,50.908001
2023-02-05T08:04:23.301Z,50.908039
2023-02-05T08:05:22.261Z,50.908089
2023-02-05T08:06:22.231Z,50.908081
2023-02-05T08:07:22.219Z,50.908073
2023-02-05T08:08:22.214Z,50.908245
2023-02-05T08:09:22.208Z,50.908260
2023-02-05T08:10:22.222Z,50.908096
2023-02-05T08:11:22.191Z,50.908188
2023-02-05T08:12:22.181Z,50.908157
2023-02-05T08:13:22.172Z,50.908165
2023-02-05T08:14:22.161Z,50.908138
2023-02-05T08:15:22.190Z,50.908108
2023-02-05T08:16:22.221Z,50.908157
2023-02-05T08:17:22.141Z,50.908131
2023-02-05T08:18:22.152Z,50.908161
2023-02-05T08:19:22.130Z,50.908138
2023-02-05T08:20:22.148Z,50.908134
2023-02-05T08:21:22.186Z,50.908161
2023-02-05T08:22:22.102Z,50.908165
2023-02-05T08:23:22.097Z,50.908131
2023-02-05T08:24:22.083Z,50.908131
2023-02-05T08:25:22.102Z,50.908142
2023-02-05T08:26:22.073Z,50.908161
2023-02-05T08:27:22.060Z,50.908165
2023-02-05T08:28:22.048Z,50.908154
2023-02-05T08:29:22.046Z,50.908123
2023-02-05T08:30:22.058Z,50.908115
2023-02-05T08:31:22.134Z,50.908092
2023-02-05T08:32:22.021Z,50.908108
2023-02-05T08:33:22.008Z,50.908089
2023-02-05T08:34:22.003Z,50.908115
2023-02-05T08:35:22.017Z,50.908146
2023-02-05T08:36:21.999Z,50.908127
2023-02-05T08:37:22.034Z,50.908054
2023-02-05T08:38:21.969Z,50.908157
2023-02-05T08:39:21.967Z,50.907978
2023-02-05T08:40:21.984Z,50.908009
2023-02-05T08:41:21.946Z,50.908188
2023-02-05T08:42:21.944Z,50.907982
2023-02-05T08:43:21.929Z,50.907982
2023-02-05T08:44:21.921Z,50.907967
2023-02-05T08:45:21.910Z,50.907925
2023-02-05T08:46:21.935Z,50.908173
2023-02-05T08:47:21.904Z,50.908169
2023-02-05T08:48:21.889Z,50.908104
2023-02-05T08:49:21.879Z,50.908081
2023-02-05T08:50:21.878Z,50.908096
2023-02-05T08:51:21.896Z,50.908062
2023-02-05T08:52:21.859Z,50.908058
2023-02-05T08:53:21.852Z,50.908115
2023-02-05T08:54:21.841Z,50.908051
2023-02-05T08:55:21.839Z,50.908028
2023-02-05T08:56:21.854Z,50.908123
2023-02-05T08:57:21.823Z,50.908051
2023-02-05T08:58:21.814Z,50.908043
2023-02-05T08:59:21.806Z,50.908108
2023-02-05T09:00:21.793Z,50.908115
2023-02-05T09:01:21.843Z,50.908180
2023-02-05T09:02:21.777Z,50.908066
2023-02-05T09:03:21.769Z,50.908112
2023-02-05T09:04:21.794Z,50.908108
2023-02-05T09:05:21.757Z,50.908096
2023-02-05T09:06:21.782Z,50.908047
2023-02-05T09:07:21.742Z,50.907986
2023-02-05T09:08:21.732Z,50.908108
2023-02-05T09:09:21.722Z,50.908115
2023-02-05T09:10:21.718Z,50.908215
2023-02-05T09:11:21.737Z,50.908012
2023-02-05T09:12:21.708Z,50.908119
2023-02-05T09:13:21.705Z,50.908184
2023-02-05T09:14:21.686Z,50.908279
2023-02-05T09:15:21.686Z,50.908100
2023-02-05T09:16:21.728Z,50.907997
2023-02-05T09:17:21.656Z,50.908081
2023-02-05T09:18:21.652Z,50.907837
2023-02-05T09:19:21.650Z,50.907795
2023-02-05T09:20:21.637Z,50.907795
2023-02-05T09:21:21.660Z,50.907795
2023-02-05T09:22:21.632Z,50.907799
2023-02-05T09:23:21.654Z,50.907986
2023-02-05T09:24:21.610Z,50.907757
2023-02-05T09:25:21.603Z,50.907772
2023-02-05T09:26:21.619Z,50.907963
2023-02-05T09:27:21.587Z,50.907890
2023-02-05T09:28:21.581Z,50.908077
2023-02-05T09:29:21.576Z,50.908058
2023-02-05T09:30:21.566Z,50.908089
2023-02-05T09:31:21.712Z,50.908119
2023-02-05T09:32:21.541Z,50.908134
2023-02-05T09:33:21.542Z,50.908119
2023-02-05T09:34:21.531Z,50.908100
2023-02-05T09:35:21.529Z,50.908096
2023-02-05T09:36:21.551Z,50.908051
2023-02-05T09:37:21.506Z,50.908058
2023-02-05T09:38:21.508Z,50.908100
2023-02-05T09:39:52.417Z,50.908119
2023-02-05T09:40:23.521Z,50.908123
2023-02-05T09:41:21.498Z,50.908134
2023-02-05T09:42:21.500Z,50.908134
2023-02-05T09:43:21.468Z,50.908104
2023-02-05T09:44:21.462Z,50.908127
2023-02-05T09:45:21.460Z,50.908150
2023-02-05T09:46:21.484Z,50.908119
2023-02-05T09:47:21.434Z,50.908134
2023-02-05T09:48:21.428Z,50.908096
2023-02-05T09:49:21.416Z,50.908077
2023-02-05T09:50:21.417Z,50.908134
2023-02-05T09:51:21.425Z,50.908123
2023-02-05T09:52:21.393Z,50.908157
2023-02-05T09:53:21.385Z,50.908138
2023-02-05T09:54:21.380Z,50.908131
2023-02-05T09:55:21.387Z,50.908123
2023-02-05T09:56:21.378Z,50.908100
2023-02-05T09:57:22.353Z,50.908134
2023-02-05T09:58:21.351Z,50.908150
2023-02-05T09:59:21.331Z,50.908077
2023-02-05T10:00:21.335Z,50.908108
2023-02-05T10:01:21.390Z,50.908123
2023-02-05T10:02:21.309Z,50.908127
2023-02-05T10:03:21.298Z,50.908169
2023-02-05T10:04:21.319Z,50.908192
2023-02-05T10:05:21.283Z,50.908165
2023-02-05T10:06:21.305Z,50.908184
2023-02-05T10:07:21.264Z,50.908180
2023-02-05T10:08:21.270Z,50.908142
2023-02-05T10:09:21.251Z,50.908157
2023-02-05T10:10:21.241Z,50.908123
2023-02-05T10:11:21.258Z,50.908115
2023-02-05T10:12:21.224Z,50.908115
2023-02-05T10:13:21.218Z,50.908169
2023-02-05T10:14:21.211Z,50.908115
2023-02-05T10:15:21.220Z,50.908051
2023-02-05T10:16:21.228Z,50.908123
2023-02-05T10:17:21.188Z,50.908192
2023-02-05T10:18:21.182Z,50.908260
2023-02-05T10:19:21.187Z,50.908218
2023-02-05T10:20:21.167Z,50.908321
2023-02-05T10:21:21.155Z,50.908283
2023-02-05T10:22:21.171Z,50.908211
2023-02-05T10:23:21.154Z,50.908157
2023-02-05T10:24:21.126Z,50.908154
2023-02-05T10:25:21.121Z,50.908146
2023-02-05T10:26:21.123Z,50.908169
2023-02-05T10:27:21.137Z,50.908123
2023-02-05T10:28:21.103Z,50.908138
2023-02-05T10:29:21.097Z,50.908157
2023-02-05T10:30:21.123Z,50.908154
2023-02-05T10:31:21.208Z,50.908157
2023-02-05T10:32:21.101Z,50.908188
2023-02-05T10:33:21.067Z,50.908192
2023-02-05T10:34:21.063Z,50.908096
2023-02-05T10:35:21.059Z,50.908092
2023-02-05T10:36:21.053Z,50.908131
2023-02-05T10:37:21.071Z,50.908134
2023-02-05T10:38:21.028Z,50.908134
2023-02-05T10:39:21.029Z,50.908131
2023-02-05T10:40:21.038Z,50.908112
2023-02-05T10:41:21.015Z,50.908115
2023-02-05T10:42:21.030Z,50.908127
2023-02-05T10:43:20.985Z,50.908108
2023-02-05T10:44:20.978Z,50.908073
2023-02-05T10:45:20.983Z,50.908096
2023-02-05T10:46:20.999Z,50.908119
2023-02-05T10:47:20.993Z,50.908150
2023-02-05T10:48:20.949Z,50.908165
2023-02-05T10:49:20.936Z,50.908207
2023-02-05T10:50:21.936Z,50.908237
2023-02-05T10:51:20.928Z,50.908119
2023-02-05T10:52:20.940Z,50.908134
2023-02-05T10:53:20.910Z,50.908112
2023-02-05T10:54:20.902Z,50.908150
2023-02-05T10:55:20.894Z,50.908142
2023-02-05T10:56:20.877Z,50.908119
2023-02-05T10:57:21.916Z,50.908138
2023-02-05T10:58:20.870Z,50.908180
2023-02-05T10:59:20.864Z,50.908138
2023-02-05T11:00:20.984Z,50.908154
2023-02-05T11:01:20.873Z,50.908249
2023-02-05T11:02:20.936Z,50.908165
2023-02-05T11:03:20.832Z,50.908157
2023-02-05T11:04:20.823Z,50.908157
2023-02-05T11:05:20.817Z,50.908127
2023-02-05T11:06:20.807Z,50.908215
2023-02-05T11:07:20.833Z,50.908211
2023-02-05T11:08:20.788Z,50.908192
2023-02-05T11:09:20.784Z,50.908237
2023-02-05T11:10:20.774Z,50.908188
2023-02-05T11:11:20.770Z,50.908173
2023-02-05T11:12:20.788Z,50.908131
2023-02-05T11:13:20.755Z,50.908169
2023-02-05T11:14:20.743Z,50.908173
2023-02-05T11:15:20.736Z,50.908180
2023-02-05T11:16:20.756Z,50.908119
2023-02-05T11:17:20.728Z,50.908142
2023-02-05T11:18:20.738Z,50.908161
2023-02-05T11:19:21.708Z,50.908070
2023-02-05T11:20:20.696Z,50.908176
2023-02-05T11:21:20.686Z,50.908142
2023-02-05T11:22:20.720Z,50.908218
2023-02-05T11:23:20.674Z,50.908169
2023-02-05T11:24:20.674Z,50.908188